Time;durP1;ratioP1;P1;durP2;ratioP2;P2;SDS_P1;SDS_P2;PMS_P1;PMS_P2;Temp;Humidity;BMP_temperature;BMP_pressure;BME280_temperature;BME280_humidity;BME280_pressure;Samples;Min_cycle;Max_cycle;Signal;HPM_P1;HPM_P2
2023/07/25 00:01:52;;;;;;;3.10;1.10;;;22.90;52.20;;;;;;4984454;28;20833;-69
2023/07/25 00:04:40;;;;;;;1.40;1.30;;;22.90;52.20;;;;;;4978566;28;20466;-68
2023/07/25 00:07:13;;;;;;;1.40;1.30;;;22.90;52.20;;;;;;4953788;28;20485;-68
2023/07/25 00:10:09;;;;;;;1.60;1.50;;;22.90;52.30;;;;;;4985885;28;20441;-69
2023/07/25 00:13:07;;;;;;;1.30;1.20;;;22.90;52.30;;;;;;4975293;28;20476;-69
2023/07/25 00:15:58;;;;;;;1.50;1.37;;;22.90;52.30;;;;;;4952513;28;20563;-69
2023/07/25 00:19:20;;;;;;;1.47;1.33;;;22.90;52.20;;;;;;5002062;28;20833;-69
2023/07/25 00:22:53;;;;;;;1.40;1.30;;;22.90;52.20;;;;;;4985633;28;20622;-69
2023/07/25 00:32:38;;;;;;;1.23;1.13;;;22.90;52.10;;;;;;4970339;28;20487;-69
2023/07/25 00:35:32;;;;;;;1.10;0.97;;;22.80;52.00;;;;;;4948335;28;20456;-69
2023/07/25 00:38:38;;;;;;;2.53;1.20;;;22.90;52.10;;;;;;4967681;28;20994;-70
2023/07/25 00:41:22;;;;;;;1.40;1.10;;;22.80;52.10;;;;;;5005281;28;21300;-68
2023/07/25 00:44:25;;;;;;;1.70;1.60;;;22.80;52.10;;;;;;4969961;28;20546;-68
2023/07/25 00:47:14;;;;;;;1.67;1.47;;;22.80;52.00;;;;;;4982329;28;20464;-70
2023/07/25 00:50:21;;;;;;;1.40;1.30;;;22.80;53.30;;;;;;4979098;28;20529;-69
2023/07/25 00:53:18;;;;;;;1.43;1.20;;;22.80;52.10;;;;;;4987956;28;20482;-69
2023/07/25 00:56:17;;;;;;;1.20;0.90;;;22.80;52.10;;;;;;4986303;28;20452;-70
2023/07/25 00:59:09;;;;;;;1.50;1.30;;;22.80;52.00;;;;;;4977228;28;20815;-69
2023/07/25 01:02:29;;;;;;;1.20;1.10;;;22.80;53.20;;;;;;5004968;28;20470;-69
2023/07/25 01:06:08;;;;;;;1.73;1.10;;;22.80;52.00;;;;;;5000232;28;20476;-69
2023/07/25 01:09:08;;;;;;;1.97;1.23;;;22.80;52.10;;;;;;4987030;28;20872;-69
2023/07/25 01:11:55;;;;;;;1.60;1.10;;;22.80;52.00;;;;;;4996006;28;20483;-69
2023/07/25 01:15:06;;;;;;;1.57;1.20;;;22.80;52.00;;;;;;4979491;28;20470;-69
2023/07/25 01:17:47;;;;;;;1.17;1.07;;;22.80;52.00;;;;;;5004268;23;20497;-75
2023/07/25 01:20:16;;;;;;;1.37;1.10;;;22.80;52.00;;;;;;5025810;28;20474;-75
2023/07/25 01:22:47;;;;;;;1.47;1.33;;;22.80;51.90;;;;;;5023929;28;21008;-73
2023/07/25 01:25:17;;;;;;;1.47;1.07;;;22.80;51.90;;;;;;5033549;28;20910;-74
2023/07/25 01:27:46;;;;;;;1.50;1.17;;;22.80;51.90;;;;;;5026133;28;20563;-74
2023/07/25 01:30:14;;;;;;;1.73;1.43;;;22.80;52.00;;;;;;5039106;28;20817;-75
2023/07/25 01:32:42;;;;;;;1.93;1.30;;;22.80;51.90;;;;;;5028854;28;21038;-74
2023/07/25 01:35:11;;;;;;;1.40;1.20;;;22.70;51.90;;;;;;5020496;28;21095;-75
2023/07/25 01:37:39;;;;;;;1.10;1.00;;;22.70;51.90;;;;;;5020059;28;20461;-73
2023/07/25 01:40:09;;;;;;;1.77;1.40;;;22.70;51.90;;;;;;5024540;28;20467;-74
2023/07/25 01:42:39;;;;;;;2.23;1.30;;;22.70;51.90;;;;;;5024954;28;20553;-75
2023/07/25 01:45:09;;;;;;;1.47;1.30;;;22.70;51.80;;;;;;5027046;28;20477;-74
2023/07/25 01:47:37;;;;;;;1.37;0.90;;;22.70;51.90;;;;;;5026568;28;20495;-75
2023/07/25 01:50:06;;;;;;;1.03;0.87;;;22.70;51.80;;;;;;5028952;28;20468;-75
2023/07/25 01:52:34;;;;;;;1.37;1.17;;;22.70;51.90;;;;;;5020406;28;20475;-74
2023/07/25 01:55:03;;;;;;;1.97;1.67;;;22.70;51.80;;;;;;5040018;28;20505;-75
2023/07/25 01:57:31;;;;;;;1.60;1.10;;;22.70;51.80;;;;;;5033986;28;20475;-75
2023/07/25 02:00:01;;;;;;;2.00;1.30;;;22.70;51.90;;;;;;5030653;28;20981;-75
2023/07/25 02:02:39;;;;;;;2.10;1.10;;;22.70;51.90;;;;;;5041295;28;20474;-75
2023/07/25 02:05:08;;;;;;;1.87;1.13;;;22.70;51.80;;;;;;5021218;28;20574;-75
2023/07/25 02:07:37;;;;;;;1.27;1.07;;;22.70;51.80;;;;;;5045739;28;20575;-74
2023/07/25 02:10:06;;;;;;;1.17;0.90;;;22.70;51.80;;;;;;5031420;28;20460;-76
2023/07/25 02:12:35;;;;;;;1.40;1.20;;;22.70;51.80;;;;;;5029673;28;20473;-75
2023/07/25 02:15:05;;;;;;;2.13;1.30;;;22.70;51.90;;;;;;5030573;28;20446;-75
2023/07/25 02:17:34;;;;;;;2.10;1.10;;;22.70;51.80;;;;;;5042724;28;20477;-75
2023/07/25 02:20:02;;;;;;;1.27;0.83;;;22.70;51.80;;;;;;5030576;28;20876;-74
2023/07/25 02:22:31;;;;;;;1.20;1.10;;;22.70;51.80;;;;;;5032699;28;20535;-75
2023/07/25 02:24:59;;;;;;;3.40;1.50;;;22.70;51.80;;;;;;5047854;28;20486;-74
2023/07/25 02:27:28;;;;;;;1.90;1.30;;;22.70;51.80;;;;;;5026594;28;20485;-74
2023/07/25 02:29:56;;;;;;;1.60;1.00;;;22.60;51.80;;;;;;5030943;28;20448;-74
2023/07/25 02:32:26;;;;;;;1.00;0.80;;;22.60;51.80;;;;;;5043475;28;20467;-74
2023/07/25 02:34:54;;;;;;;1.43;1.10;;;22.60;51.80;;;;;;5032101;28;20462;-74
2023/07/25 02:37:23;;;;;;;1.33;1.00;;;22.60;51.80;;;;;;5026917;28;20480;-75
2023/07/25 02:39:51;;;;;;;1.67;1.00;;;22.60;51.80;;;;;;5032489;28;20802;-74
2023/07/25 02:42:20;;;;;;;2.57;1.17;;;22.60;51.80;;;;;;5048625;28;20474;-75
2023/07/25 02:44:48;;;;;;;1.23;0.93;;;22.60;51.80;;;;;;5049006;28;20450;-75
2023/07/25 02:47:17;;;;;;;3.17;1.23;;;22.60;51.80;;;;;;5026260;28;20509;-75
2023/07/25 02:49:47;;;;;;;1.73;1.20;;;22.60;51.80;;;;;;5029758;28;20490;-74
2023/07/25 02:52:15;;;;;;;1.80;1.40;;;22.60;51.80;;;;;;5043076;28;20473;-74
2023/07/25 02:54:43;;;;;;;1.30;1.20;;;22.60;51.80;;;;;;5039529;28;20897;-75
2023/07/25 02:57:12;;;;;;;1.33;1.10;;;22.60;51.80;;;;;;5043145;28;20475;-75
2023/07/25 02:59:40;;;;;;;1.93;1.10;;;22.60;51.80;;;;;;5024394;28;20442;-75
2023/07/25 03:02:10;;;;;;;1.60;1.50;;;22.60;51.80;;;;;;5042191;28;20496;-75
2023/07/25 03:04:38;;;;;;;1.57;1.17;;;22.60;51.80;;;;;;5021918;28;20461;-75
2023/07/25 03:07:08;;;;;;;1.30;0.90;;;22.60;51.80;;;;;;5039489;28;21034;-73
2023/07/25 03:09:40;;;;;;;2.60;1.50;;;22.60;51.80;;;;;;5028021;28;20450;-75
2023/07/25 03:12:09;;;;;;;2.40;1.17;;;22.60;51.80;;;;;;5024194;28;20540;-74
2023/07/25 03:14:37;;;;;;;1.53;1.40;;;22.60;51.80;;;;;;5023363;28;20461;-74
2023/07/25 03:17:06;;;;;;;1.37;1.10;;;22.60;51.80;;;;;;5026664;28;20450;-75
2023/07/25 03:19:34;;;;;;;0.90;0.80;;;22.60;51.80;;;;;;5042730;28;20460;-75
2023/07/25 03:22:03;;;;;;;1.00;0.90;;;22.50;51.70;;;;;;5041134;28;21071;-75
2023/07/25 03:24:33;;;;;;;1.53;1.10;;;22.60;51.80;;;;;;5026088;28;20470;-74
2023/07/25 03:27:01;;;;;;;1.50;1.20;;;22.50;51.70;;;;;;5024927;28;20818;-74
2023/07/25 03:29:30;;;;;;;1.47;0.90;;;22.60;51.80;;;;;;5039759;28;20449;-74
2023/07/25 03:31:58;;;;;;;3.57;1.37;;;22.50;52.90;;;;;;5038745;28;20823;-74
2023/07/25 03:34:26;;;;;;;1.20;1.10;;;22.50;51.70;;;;;;5031972;28;20831;-74
2023/07/25 03:36:55;;;;;;;1.10;0.93;;;22.50;51.70;;;;;;5037715;28;20445;-74
2023/07/25 03:39:23;;;;;;;2.50;1.27;;;22.50;51.70;;;;;;5020880;28;20818;-75
2023/07/25 03:41:53;;;;;;;1.30;1.20;;;22.50;51.70;;;;;;5039289;28;20475;-75
2023/07/25 03:44:21;;;;;;;2.40;1.40;;;22.50;51.70;;;;;;5043789;28;20547;-74
2023/07/25 03:46:50;;;;;;;1.70;1.10;;;22.50;51.70;;;;;;5019990;28;20448;-75
2023/07/25 03:49:18;;;;;;;1.63;0.90;;;22.50;51.70;;;;;;5025589;28;20452;-74
2023/07/25 03:51:47;;;;;;;1.30;1.00;;;22.50;51.70;;;;;;5037438;28;20464;-74
2023/07/25 03:54:17;;;;;;;1.40;1.10;;;22.50;51.70;;;;;;5019572;28;20465;-74
2023/07/25 03:56:46;;;;;;;1.30;0.90;;;22.50;51.70;;;;;;5038575;28;20480;-74
2023/07/25 03:59:16;;;;;;;1.60;1.20;;;22.50;51.70;;;;;;5023950;28;20453;-73
2023/07/25 04:01:44;;;;;;;1.47;1.00;;;22.50;51.70;;;;;;5019574;28;20933;-74
2023/07/25 04:04:13;;;;;;;1.70;0.80;;;22.50;51.70;;;;;;5040289;28;20563;-74
2023/07/25 04:06:42;;;;;;;2.20;1.00;;;22.50;51.70;;;;;;5035217;28;20430;-74
2023/07/25 04:09:10;;;;;;;1.87;1.10;;;22.50;51.70;;;;;;5039312;28;20452;-74
2023/07/25 04:11:38;;;;;;;1.63;1.00;;;22.40;51.60;;;;;;5044160;28;20470;-73
2023/07/25 04:14:07;;;;;;;1.20;0.90;;;22.40;51.60;;;;;;5045991;28;20471;-74
2023/07/25 04:16:37;;;;;;;1.60;1.20;;;22.40;51.60;;;;;;5026645;28;20475;-74
2023/07/25 04:19:05;;;;;;;1.20;0.80;;;22.40;51.60;;;;;;5029197;28;20525;-76
2023/07/25 04:21:34;;;;;;;1.07;0.90;;;22.40;51.60;;;;;;5024460;28;20461;-74
2023/07/25 04:24:05;;;;;;;1.37;0.97;;;22.40;51.60;;;;;;5025624;28;20844;-75
2023/07/25 04:26:33;;;;;;;1.70;1.00;;;22.40;51.60;;;;;;5026633;28;20465;-73
2023/07/25 04:29:02;;;;;;;1.40;1.30;;;22.40;51.60;;;;;;5028661;28;20440;-74
2023/07/25 04:31:30;;;;;;;1.23;0.90;;;22.40;51.60;;;;;;5042158;28;20491;-73
2023/07/25 04:34:01;;;;;;;1.30;1.10;;;22.40;51.60;;;;;;5041164;28;20461;-74
2023/07/25 04:36:29;;;;;;;1.00;0.90;;;22.40;51.70;;;;;;5025956;28;21094;-73
2023/07/25 04:38:58;;;;;;;1.57;0.80;;;22.40;51.60;;;;;;5043351;28;21407;-74
2023/07/25 04:41:26;;;;;;;1.20;0.93;;;22.40;51.60;;;;;;5042659;28;20452;-74
2023/07/25 04:43:55;;;;;;;1.03;0.80;;;22.40;51.60;;;;;;5044627;28;21025;-73
2023/07/25 04:46:24;;;;;;;1.37;1.13;;;22.40;51.60;;;;;;5029992;28;20840;-73
2023/07/25 04:48:51;;;;;;;1.23;1.07;;;22.40;52.80;;;;;;5048068;28;20967;-74
2023/07/25 04:51:21;;;;;;;1.90;0.80;;;22.40;51.60;;;;;;5047544;28;20942;-73
2023/07/25 04:53:49;;;;;;;1.00;0.90;;;22.40;51.60;;;;;;5031992;28;20468;-73
2023/07/25 04:56:18;;;;;;;1.10;1.00;;;22.30;51.50;;;;;;5026563;28;21027;-73
2023/07/25 04:58:46;;;;;;;1.83;1.27;;;22.40;51.60;;;;;;5042292;28;20434;-73
2023/07/25 05:01:15;;;;;;;1.90;1.07;;;22.30;51.50;;;;;;5018799;28;20448;-72
2023/07/25 05:03:43;;;;;;;2.80;1.10;;;22.30;51.50;;;;;;5041651;28;20611;-73
2023/07/25 05:06:12;;;;;;;2.10;1.17;;;22.30;51.60;;;;;;5026565;28;20966;-73
2023/07/25 05:08:42;;;;;;;1.23;0.83;;;22.30;51.60;;;;;;5030126;28;20847;-73
2023/07/25 05:11:11;;;;;;;1.50;1.10;;;22.30;51.60;;;;;;5050297;28;20456;-73
2023/07/25 05:13:39;;;;;;;1.10;0.90;;;22.30;51.60;;;;;;5047961;28;20449;-73
2023/07/25 05:16:08;;;;;;;1.47;0.93;;;22.30;51.50;;;;;;5039899;28;20533;-73
2023/07/25 05:18:36;;;;;;;1.67;1.10;;;22.30;51.50;;;;;;5043797;28;20453;-73
2023/07/25 05:21:05;;;;;;;1.27;0.90;;;22.30;51.50;;;;;;5026030;28;20432;-73
2023/07/25 05:23:33;;;;;;;1.27;0.90;;;22.30;51.50;;;;;;5021919;28;20479;-73
2023/07/25 05:26:03;;;;;;;1.47;1.20;;;22.30;51.50;;;;;;5042712;28;20434;-73
2023/07/25 05:28:32;;;;;;;1.77;1.00;;;22.30;51.50;;;;;;5040810;28;20471;-73
2023/07/25 05:31:00;;;;;;;1.53;1.00;;;22.30;51.50;;;;;;5041077;28;20451;-73
2023/07/25 05:33:29;;;;;;;1.57;1.37;;;22.30;51.50;;;;;;5028395;28;20571;-73
2023/07/25 05:36:01;;;;;;;2.47;1.17;;;22.30;51.50;;;;;;5025129;28;20424;-73
2023/07/25 05:38:30;;;;;;;1.37;1.27;;;22.30;51.50;;;;;;5023249;28;20468;-73
2023/07/25 05:40:58;;;;;;;2.20;1.10;;;22.30;51.50;;;;;;5028757;28;21038;-73
2023/07/25 05:43:28;;;;;;;0.97;0.73;;;22.30;51.50;;;;;;5037738;28;20477;-73
2023/07/25 05:45:56;;;;;;;1.50;1.30;;;22.20;51.40;;;;;;5042355;28;20440;-73
2023/07/25 05:48:25;;;;;;;2.03;0.90;;;22.30;51.50;;;;;;5016516;28;20476;-74
2023/07/25 05:50:53;;;;;;;1.00;0.90;;;22.20;51.40;;;;;;5019773;28;20514;-73
2023/07/25 05:53:22;;;;;;;0.93;0.77;;;22.30;51.60;;;;;;5022718;28;21016;-73
2023/07/25 05:55:51;;;;;;;2.20;0.83;;;22.20;51.50;;;;;;5031233;28;20437;-73
2023/07/25 05:58:20;;;;;;;1.97;1.03;;;22.20;51.40;;;;;;5029085;28;20479;-72
2023/07/25 06:00:50;;;;;;;1.03;0.80;;;22.20;51.50;;;;;;5041944;28;20441;-72
2023/07/25 06:03:18;;;;;;;1.20;1.03;;;22.20;51.40;;;;;;5042863;28;20480;-72
2023/07/25 06:05:47;;;;;;;1.50;1.00;;;22.20;51.40;;;;;;5036379;28;20434;-73
2023/07/25 06:08:15;;;;;;;2.10;1.00;;;22.20;51.50;;;;;;5022440;28;20464;-72
2023/07/25 06:10:44;;;;;;;1.47;1.10;;;22.20;51.50;;;;;;5047255;28;20455;-72
2023/07/25 06:13:12;;;;;;;1.27;0.90;;;22.20;51.40;;;;;;5026498;28;20453;-73
2023/07/25 06:15:41;;;;;;;1.10;0.93;;;22.20;51.50;;;;;;5024500;28;20433;-73
2023/07/25 06:18:11;;;;;;;1.60;0.97;;;22.20;51.40;;;;;;5040510;28;20533;-72
2023/07/25 06:20:39;;;;;;;1.30;1.00;;;22.20;51.40;;;;;;5035646;28;20429;-72
2023/07/25 06:23:08;;;;;;;1.00;0.90;;;22.20;51.40;;;;;;5036107;28;21006;-72
2023/07/25 06:25:36;;;;;;;1.37;1.03;;;22.20;51.40;;;;;;5039297;28;20450;-73
2023/07/25 06:28:06;;;;;;;1.10;0.90;;;22.20;51.40;;;;;;5026583;28;20656;-73
2023/07/25 06:30:34;;;;;;;1.10;1.00;;;22.20;51.50;;;;;;5022883;28;20492;-73
2023/07/25 06:33:03;;;;;;;2.50;1.03;;;22.20;51.50;;;;;;5041159;28;20466;-72
2023/07/25 06:35:33;;;;;;;1.53;1.13;;;22.10;51.30;;;;;;5026016;28;20443;-73
2023/07/25 06:38:02;;;;;;;1.70;0.80;;;22.20;51.40;;;;;;5038107;28;20828;-72
2023/07/25 06:40:30;;;;;;;2.00;1.20;;;22.20;51.40;;;;;;5022050;28;20543;-72
2023/07/25 06:42:59;;;;;;;2.60;1.30;;;22.10;51.30;;;;;;5024340;28;20470;-73
2023/07/25 06:45:27;;;;;;;2.27;1.00;;;22.10;51.30;;;;;;5021898;28;20526;-73
2023/07/25 06:47:56;;;;;;;1.87;1.53;;;22.10;51.40;;;;;;5037559;28;20554;-73
2023/07/25 06:50:24;;;;;;;1.70;1.20;;;22.10;51.30;;;;;;5029454;28;20461;-73
2023/07/25 06:52:54;;;;;;;2.70;1.30;;;22.10;51.30;;;;;;5023808;28;20471;-73
2023/07/25 06:55:23;;;;;;;1.20;1.00;;;22.10;51.30;;;;;;5038346;28;20958;-73
2023/07/25 06:57:51;;;;;;;1.57;1.43;;;22.10;51.30;;;;;;5008501;28;20464;-72
2023/07/25 07:00:21;;;;;;;1.77;1.67;;;22.10;51.30;;;;;;5015906;28;20449;-73
2023/07/25 07:02:49;;;;;;;1.40;1.30;;;22.10;51.30;;;;;;5021101;28;20477;-72
2023/07/25 07:05:18;;;;;;;1.30;1.03;;;22.10;51.30;;;;;;5028568;28;20601;-73
2023/07/25 07:07:59;;;;;;;1.23;1.10;;;22.10;51.30;;;;;;5040304;28;20484;-73
2023/07/25 07:10:28;;;;;;;1.20;1.00;;;22.10;51.30;;;;;;5047087;28;20991;-73
2023/07/25 07:12:56;;;;;;;2.60;1.20;;;22.10;51.40;;;;;;5043150;28;20479;-73
2023/07/25 07:15:25;;;;;;;2.20;1.40;;;22.10;51.40;;;;;;5042371;28;20471;-73
2023/07/25 07:17:54;;;;;;;1.37;1.10;;;22.10;51.30;;;;;;5039037;28;20852;-73
2023/07/25 07:20:22;;;;;;;2.80;1.17;;;22.10;51.30;;;;;;5025176;28;20453;-73
2023/07/25 07:22:51;;;;;;;1.67;1.50;;;22.10;51.40;;;;;;5041575;28;20480;-73
2023/07/25 07:25:21;;;;;;;1.63;1.10;;;22.10;51.30;;;;;;5038263;28;20477;-73
2023/07/25 07:27:50;;;;;;;1.70;1.47;;;22.10;51.30;;;;;;5047563;28;20514;-73
2023/07/25 07:30:18;;;;;;;1.57;1.30;;;22.10;51.30;;;;;;5043782;28;20450;-73
2023/07/25 07:32:47;;;;;;;2.20;1.03;;;22.10;51.30;;;;;;5027978;28;20481;-73
2023/07/25 07:35:15;;;;;;;1.23;1.10;;;22.10;51.40;;;;;;5041524;28;21001;-73
2023/07/25 07:37:44;;;;;;;1.67;1.10;;;22.10;52.50;;;;;;5041112;28;20556;-73
2023/07/25 07:40:13;;;;;;;2.50;1.90;;;22.10;51.30;;;;;;5044779;28;20531;-73
2023/07/25 07:42:42;;;;;;;1.53;1.20;;;22.10;51.30;;;;;;5026881;28;20578;-73
2023/07/25 07:45:11;;;;;;;1.50;1.17;;;22.10;51.30;;;;;;5027683;28;20476;-73
2023/07/25 07:47:39;;;;;;;3.00;1.90;;;22.10;51.30;;;;;;5040395;28;20964;-73
2023/07/25 07:50:09;;;;;;;1.83;1.20;;;22.00;51.20;;;;;;5028877;28;20439;-73
2023/07/25 07:52:43;;;;;;;3.10;1.77;;;22.00;51.20;;;;;;5025119;28;20516;-73
2023/07/25 07:55:12;;;;;;;2.13;1.30;;;22.00;51.20;;;;;;5040195;28;20484;-73
2023/07/25 07:57:43;;;;;;;1.80;1.10;;;22.00;51.20;;;;;;5028608;28;20463;-73
2023/07/25 08:00:14;;;;;;;1.30;1.20;;;22.00;51.20;;;;;;5038263;28;20437;-73
2023/07/25 08:02:43;;;;;;;2.33;1.63;;;22.00;51.30;;;;;;5042218;28;20448;-73
2023/07/25 08:05:12;;;;;;;2.07;1.50;;;22.00;51.20;;;;;;5033994;28;21107;-73
2023/07/25 08:07:41;;;;;;;1.87;1.23;;;22.00;51.20;;;;;;5035887;28;20824;-73
2023/07/25 08:10:10;;;;;;;1.73;1.20;;;22.00;51.20;;;;;;5019659;28;20959;-73
2023/07/25 08:12:39;;;;;;;1.17;1.07;;;22.00;51.20;;;;;;5015452;28;20849;-73
2023/07/25 08:15:10;;;;;;;1.10;1.00;;;22.00;51.20;;;;;;5037084;28;20481;-73
2023/07/25 08:17:39;;;;;;;2.77;1.90;;;22.00;51.20;;;;;;5028726;28;20460;-74
2023/07/25 08:20:08;;;;;;;4.60;2.00;;;22.00;51.30;;;;;;5024393;28;20460;-74
2023/07/25 08:22:37;;;;;;;4.37;2.57;;;22.00;51.30;;;;;;5016677;28;20544;-74
2023/07/25 08:25:06;;;;;;;6.00;2.23;;;22.00;51.30;;;;;;5024940;28;20488;-72
2023/07/25 08:27:35;;;;;;;3.60;1.83;;;22.00;51.20;;;;;;5028006;28;20472;-72
2023/07/25 08:30:04;;;;;;;1.87;1.67;;;21.90;51.20;;;;;;5024085;28;20472;-73
2023/07/25 08:32:34;;;;;;;2.23;1.60;;;21.90;51.10;;;;;;5026926;28;20468;-72
2023/07/25 08:35:02;;;;;;;4.87;2.30;;;21.90;51.20;;;;;;5027612;28;20456;-72
2023/07/25 08:37:31;;;;;;;3.50;2.13;;;21.90;51.10;;;;;;5037998;28;20480;-72
2023/07/25 08:40:00;;;;;;;3.20;2.00;;;21.90;51.20;;;;;;5027749;28;20439;-72
2023/07/25 08:42:33;;;;;;;5.53;1.83;;;21.90;51.20;;;;;;5040306;28;20507;-72
2023/07/25 08:45:04;;;;;;;3.47;1.57;;;21.90;51.10;;;;;;5029616;28;20992;-73
2023/07/25 08:47:38;;;;;;;1.83;1.60;;;21.90;51.20;;;;;;5041120;28;20457;-73
2023/07/25 08:50:12;;;;;;;3.03;1.80;;;21.90;51.10;;;;;;5029834;28;20443;-73
2023/07/25 08:52:41;;;;;;;2.60;2.10;;;21.90;51.10;;;;;;5024744;28;20478;-73
2023/07/25 08:55:10;;;;;;;2.67;2.00;;;21.90;51.20;;;;;;5040457;28;20462;-73
2023/07/25 08:57:39;;;;;;;3.40;1.73;;;21.90;51.10;;;;;;5035769;28;20456;-72
2023/07/25 09:00:08;;;;;;;3.30;2.17;;;21.90;51.20;;;;;;5026218;28;20486;-73
2023/07/25 09:02:39;;;;;;;3.13;1.37;;;21.90;51.10;;;;;;5027507;28;20562;-72
2023/07/25 09:05:08;;;;;;;1.53;1.40;;;21.90;51.10;;;;;;5031226;28;20475;-73
2023/07/25 09:07:37;;;;;;;2.10;1.23;;;21.90;51.20;;;;;;5037273;28;20474;-72
2023/07/25 09:10:06;;;;;;;1.60;1.43;;;21.90;51.10;;;;;;5042219;28;20989;-72
2023/07/25 09:12:35;;;;;;;1.63;1.53;;;21.90;51.20;;;;;;5018852;28;20514;-72
2023/07/25 09:15:04;;;;;;;2.00;1.30;;;21.80;51.00;;;;;;5042983;28;21033;-72
2023/07/25 09:17:32;;;;;;;1.70;1.60;;;21.90;51.10;;;;;;5021737;28;20475;-72
2023/07/25 09:20:03;;;;;;;1.53;1.20;;;21.80;51.10;;;;;;5023093;28;20761;-72
2023/07/25 09:22:33;;;;;;;2.50;1.90;;;21.90;51.10;;;;;;5017207;28;20480;-73
2023/07/25 09:25:01;;;;;;;1.30;0.90;;;21.80;51.10;;;;;;5037514;28;20475;-72
2023/07/25 09:27:30;;;;;;;1.60;1.43;;;21.80;51.00;;;;;;5025153;28;20487;-73
2023/07/25 09:29:59;;;;;;;2.40;1.70;;;21.80;51.10;;;;;;5043409;28;20433;-73
2023/07/25 09:32:28;;;;;;;2.40;1.50;;;21.80;51.10;;;;;;5038392;28;20484;-72
2023/07/25 09:34:58;;;;;;;1.77;1.33;;;21.80;51.10;;;;;;5043779;28;20519;-73
2023/07/25 09:37:29;;;;;;;2.90;1.57;;;21.80;51.20;;;;;;5020071;28;20554;-73
2023/07/25 09:39:58;;;;;;;2.80;1.77;;;21.80;51.10;;;;;;5026518;28;20447;-72
2023/07/25 09:42:26;;;;;;;2.10;1.47;;;21.80;51.10;;;;;;5046695;28;20468;-72
2023/07/25 09:44:57;;;;;;;2.17;1.30;;;21.80;51.10;;;;;;5019095;28;20978;-73
2023/07/25 09:47:28;;;;;;;1.80;1.20;;;21.80;51.10;;;;;;5029430;28;20558;-73
2023/07/25 09:49:57;;;;;;;2.30;1.43;;;21.80;51.10;;;;;;5029266;28;20466;-73
2023/07/25 09:52:27;;;;;;;2.27;1.40;;;21.80;51.10;;;;;;5031286;28;20459;-72
2023/07/25 09:54:56;;;;;;;1.57;1.43;;;21.80;51.10;;;;;;5043715;28;20463;-73
2023/07/25 09:57:25;;;;;;;1.87;1.23;;;21.80;51.20;;;;;;5026426;28;20475;-73
2023/07/25 09:59:56;;;;;;;1.93;1.60;;;21.80;51.10;;;;;;5019295;28;20436;-73
2023/07/25 10:02:25;;;;;;;1.63;1.27;;;21.80;51.10;;;;;;5023712;28;20514;-72
2023/07/25 10:04:55;;;;;;;1.90;1.50;;;21.80;51.10;;;;;;5037123;28;20475;-73
2023/07/25 10:07:25;;;;;;;1.53;1.43;;;21.80;52.30;;;;;;5042040;28;20756;-72
2023/07/25 10:09:57;;;;;;;1.50;1.20;;;21.80;51.10;;;;;;5042482;28;20448;-73
2023/07/25 10:12:26;;;;;;;1.73;1.20;;;21.80;51.00;;;;;;5026871;28;20582;-72
2023/07/25 10:14:56;;;;;;;2.00;1.60;;;21.80;51.00;;;;;;5023978;28;20468;-72
2023/07/25 10:17:25;;;;;;;2.20;1.43;;;21.80;50.80;;;;;;5032579;28;20475;-72
2023/07/25 10:19:55;;;;;;;3.10;1.50;;;21.80;51.10;;;;;;5022970;28;20466;-73
2023/07/25 10:22:37;;;;;;;2.43;1.60;;;21.80;51.00;;;;;;5039140;28;20567;-73
2023/07/25 10:25:11;;;;;;;1.50;1.40;;;21.80;50.90;;;;;;5043637;28;20475;-73
2023/07/25 10:27:40;;;;;;;4.40;1.53;;;21.80;51.10;;;;;;5042723;28;21075;-72
2023/07/25 10:30:24;;;;;;;1.97;1.00;;;21.80;51.00;;;;;;5037240;28;20447;-72
2023/07/25 10:32:56;;;;;;;1.97;1.43;;;21.80;50.90;;;;;;5043024;28;20468;-72
2023/07/25 10:35:49;;;;;;;1.70;1.40;;;21.80;50.90;;;;;;5027338;28;20587;-72
2023/07/25 10:38:24;;;;;;;2.20;1.57;;;21.80;50.70;;;;;;5053046;28;20893;-72
2023/07/25 10:40:56;;;;;;;1.50;1.40;;;21.80;50.90;;;;;;5025598;28;20987;-72
2023/07/25 10:43:29;;;;;;;1.83;1.33;;;21.80;50.80;;;;;;5029113;28;20483;-72
2023/07/25 10:46:01;;;;;;;1.43;1.33;;;21.80;50.80;;;;;;5026066;28;20475;-72
2023/07/25 10:48:35;;;;;;;1.30;1.17;;;21.80;50.80;;;;;;5021407;28;20473;-72
2023/07/25 10:51:06;;;;;;;1.90;1.33;;;21.80;50.60;;;;;;5037877;28;20443;-72
2023/07/25 10:53:36;;;;;;;1.33;1.23;;;21.80;50.60;;;;;;5021385;28;20939;-72
2023/07/25 10:56:14;;;;;;;1.70;1.23;;;21.80;50.70;;;;;;5041831;28;20444;-72
2023/07/25 10:59:05;;;;;;;1.53;1.30;;;21.80;50.70;;;;;;5045081;28;20821;-72
2023/07/25 11:01:44;;;;;;;1.90;1.70;;;21.80;50.30;;;;;;5026650;28;20452;-72
2023/07/25 11:04:32;;;;;;;1.83;1.30;;;21.80;50.40;;;;;;5028654;28;20460;-73
2023/07/25 11:07:10;;;;;;;1.30;1.20;;;21.80;50.50;;;;;;5025053;28;20475;-72
2023/07/25 11:09:42;;;;;;;1.53;1.10;;;21.80;50.50;;;;;;5026411;28;20457;-72
2023/07/25 11:12:14;;;;;;;2.53;1.13;;;21.80;50.60;;;;;;5041917;28;20512;-72
2023/07/25 11:14:44;;;;;;;1.60;1.20;;;21.80;50.20;;;;;;5024506;28;20575;-73
2023/07/25 11:17:14;;;;;;;2.93;1.33;;;21.80;50.30;;;;;;5027374;28;20877;-72
2023/07/25 11:19:43;;;;;;;1.30;1.20;;;21.80;50.20;;;;;;5039511;28;20439;-73
2023/07/25 11:22:13;;;;;;;2.30;1.37;;;21.80;50.40;;;;;;5036600;28;20439;-73
2023/07/25 11:24:42;;;;;;;1.40;1.30;;;21.80;50.30;;;;;;5027151;28;20468;-72
2023/07/25 11:27:13;;;;;;;1.50;1.40;;;21.80;50.40;;;;;;5024608;28;20473;-72
2023/07/25 11:29:42;;;;;;;1.50;1.27;;;21.80;50.40;;;;;;5023104;28;20448;-72
2023/07/25 11:32:10;;;;;;;1.87;1.30;;;21.80;50.40;;;;;;5027685;28;20461;-72
2023/07/25 11:34:39;;;;;;;1.57;1.13;;;21.80;50.40;;;;;;5031526;28;20485;-72
2023/07/25 11:37:12;;;;;;;3.00;1.23;;;21.80;50.40;;;;;;5022715;28;20468;-72
2023/07/25 11:39:40;;;;;;;1.70;1.40;;;21.80;50.50;;;;;;5039188;28;20513;-72
2023/07/25 11:42:09;;;;;;;1.30;1.10;;;21.80;50.20;;;;;;5040922;28;20599;-72
2023/07/25 11:44:40;;;;;;;1.20;1.10;;;21.80;50.20;;;;;;5026273;28;20566;-72
2023/07/25 11:47:09;;;;;;;1.17;0.83;;;21.80;50.20;;;;;;5021370;28;20483;-72
2023/07/25 11:49:38;;;;;;;3.37;1.47;;;21.80;50.10;;;;;;5051354;28;20447;-73
2023/07/25 11:52:23;;;;;;;1.47;1.37;;;21.80;50.10;;;;;;5043215;28;20471;-73
2023/07/25 11:54:52;;;;;;;2.17;1.47;;;21.80;50.20;;;;;;5041201;28;21091;-72
2023/07/25 11:57:21;;;;;;;1.20;1.10;;;21.80;50.20;;;;;;5027412;28;20874;-72
2023/07/25 11:59:54;;;;;;;2.03;1.30;;;21.80;50.20;;;;;;5022595;28;20448;-72
2023/07/25 12:02:24;;;;;;;1.50;1.10;;;21.80;50.20;;;;;;5047612;28;20478;-72
2023/07/25 12:04:53;;;;;;;2.47;1.30;;;21.80;50.00;;;;;;5041858;28;20882;-72
2023/07/25 12:07:21;;;;;;;7.73;2.10;;;21.80;50.10;;;;;;5030169;28;20488;-72
2023/07/25 12:09:52;;;;;;;3.60;1.90;;;21.70;46.80;;;;;;5042756;28;20453;-72
2023/07/25 12:12:21;;;;;;;7.97;2.43;;;21.70;47.20;;;;;;5044645;28;20472;-73
2023/07/25 12:15:00;;;;;;;4.03;1.70;;;21.70;47.40;;;;;;5040264;28;20465;-72
2023/07/25 12:17:42;;;;;;;6.70;2.10;;;21.70;47.60;;;;;;5031126;28;20467;-72
2023/07/25 12:20:15;;;;;;;2.93;1.80;;;21.70;47.90;;;;;;5020509;28;20470;-73
2023/07/25 12:22:44;;;;;;;1.57;1.30;;;21.80;48.20;;;;;;5034939;28;20464;-72
2023/07/25 12:25:17;;;;;;;3.80;1.57;;;21.70;48.30;;;;;;5032177;28;20460;-72
2023/07/25 12:27:47;;;;;;;2.20;1.40;;;21.80;48.50;;;;;;5039673;28;20467;-72
2023/07/25 12:30:17;;;;;;;1.20;1.10;;;21.70;48.60;;;;;;5018835;28;20448;-72
2023/07/25 12:32:46;;;;;;;1.30;1.00;;;21.70;48.50;;;;;;5017312;28;20469;-72
2023/07/25 12:35:15;;;;;;;3.87;1.60;;;21.80;48.60;;;;;;5016783;28;20959;-72
2023/07/25 12:37:43;;;;;;;1.63;1.30;;;21.70;48.70;;;;;;5038989;28;20817;-72
2023/07/25 12:40:12;;;;;;;2.07;1.40;;;21.70;48.90;;;;;;5024145;28;20456;-72
2023/07/25 12:42:40;;;;;;;2.90;1.40;;;21.70;48.90;;;;;;5025471;28;20833;-72
2023/07/25 12:45:09;;;;;;;2.03;1.10;;;21.80;49.10;;;;;;5045096;28;20455;-72
2023/07/25 12:47:40;;;;;;;3.60;1.43;;;21.70;49.10;;;;;;5019043;28;20483;-72
2023/07/25 12:50:09;;;;;;;2.73;1.87;;;21.80;49.20;;;;;;5046914;28;20802;-72
2023/07/25 12:52:38;;;;;;;2.00;1.20;;;21.80;49.40;;;;;;5045575;28;20477;-72
2023/07/25 12:55:08;;;;;;;2.50;1.30;;;21.70;49.30;;;;;;5003793;28;20555;-72
2023/07/25 12:57:36;;;;;;;2.20;1.30;;;21.80;49.40;;;;;;5021844;28;20460;-73
2023/07/25 13:00:08;;;;;;;1.87;1.00;;;21.70;49.40;;;;;;5034654;28;20423;-72
2023/07/25 13:02:36;;;;;;;2.03;1.20;;;21.70;49.40;;;;;;5042402;28;20468;-72
2023/07/25 13:05:08;;;;;;;3.00;1.80;;;21.80;49.50;;;;;;5044258;28;20478;-72
2023/07/25 13:07:36;;;;;;;2.00;1.50;;;21.70;49.40;;;;;;5027050;28;20502;-72
2023/07/25 13:10:07;;;;;;;2.27;1.50;;;21.70;49.50;;;;;;5040193;28;20441;-72
2023/07/25 13:12:36;;;;;;;2.10;1.30;;;21.80;49.60;;;;;;5027646;28;20477;-72
2023/07/25 13:15:07;;;;;;;2.00;1.40;;;21.70;49.50;;;;;;5035965;28;20811;-73
2023/07/25 13:17:36;;;;;;;3.27;1.53;;;21.80;49.60;;;;;;5033292;28;20550;-72
2023/07/25 13:20:08;;;;;;;3.40;1.40;;;21.80;49.50;;;;;;5043565;28;20440;-67